Terminal Aerodrome Forecast
Issued by NWS Sioux Falls, SD

Home | Current Version | Previous Version | Graphics & Text | Print | Product List | Glossary On
Versions: 1 2 3 4 5 6 7 8 9 10 11 12 13 14 15 16 17
000
FTUS43 KFSD 252325
TAFFSD
TAF
KFSD 252325Z 2600/2624 33005KT P6SM BKN035
     FM260100 35006KT P6SM SCT035 BKN070
     FM261000 02005KT 3SM BR OVC015
     FM261400 04010KT P6SM -SHRA SCT010 OVC035
     FM261800 01009KT P6SM BKN100=

USA.gov is the U.S. government's official web portal to all federal, state and local government web resources and services.